createdAt,value
2019-02-02T00:01:39.090Z,42.37
2019-02-02T00:04:10.408Z,36.77
2019-02-02T00:06:39.757Z,40.55
2019-02-02T00:09:10.139Z,44.65
2019-02-02T00:11:40.699Z,42.93
2019-02-02T00:14:10.012Z,42.20
2019-02-02T00:16:39.295Z,54.33
2019-02-02T00:19:08.561Z,36.53
2019-02-02T00:21:37.763Z,43.53
2019-02-02T00:24:07.040Z,43.50
2019-02-02T00:26:54.512Z,44.48
2019-02-02T00:29:25.091Z,38.47
2019-02-02T00:32:05.475Z,43.67
2019-02-02T00:34:34.808Z,44.90
2019-02-02T00:37:05.718Z,44.53
2019-02-02T00:39:35.511Z,46.35
2019-02-02T00:42:09.415Z,39.20
2019-02-02T00:44:52.243Z,43.80
2019-02-02T00:47:12.798Z,47.20
2019-02-02T00:49:42.023Z,42.17
2019-02-02T00:52:12.167Z,43.90
2019-02-02T00:54:41.357Z,41.13
2019-02-02T00:57:10.975Z,39.13
2019-02-02T00:59:40.589Z,36.87
2019-02-02T01:02:10.189Z,46.20
2019-02-02T01:04:39.774Z,40.60
2019-02-02T01:07:08.975Z,44.43
2019-02-02T01:09:38.476Z,40.35
2019-02-02T01:12:08.364Z,40.45
2019-02-02T01:14:38.029Z,43.30
2019-02-02T01:17:15.472Z,43.55
2019-02-02T01:19:47.118Z,44.27
2019-02-02T01:22:15.754Z,38.45
2019-02-02T01:24:45.039Z,40.93
2019-02-02T01:27:14.395Z,44.07
2019-02-02T01:29:43.921Z,37.33
2019-02-02T01:32:14.035Z,37.90
2019-02-02T01:34:43.642Z,42.67
2019-02-02T01:37:13.225Z,44.13
2019-02-02T01:39:50.044Z,38.05
2019-02-02T01:42:19.162Z,38.67
2019-02-02T01:45:01.662Z,36.70
2019-02-02T01:47:33.591Z,38.17
2019-02-02T01:50:02.702Z,41.13
2019-02-02T01:52:32.510Z,36.48
2019-02-02T01:55:02.147Z,35.13
2019-02-02T01:57:31.379Z,40.07
2019-02-02T02:00:24.208Z,41.23
2019-02-02T02:02:53.385Z,39.67
2019-02-02T02:05:22.903Z,35.43
2019-02-02T02:07:52.090Z,41.80
2019-02-02T02:10:21.618Z,36.90
2019-02-02T02:12:50.919Z,39.00
2019-02-02T02:15:20.406Z,46.90
2019-02-02T02:17:49.881Z,46.17
2019-02-02T02:21:00.383Z,41.77
2019-02-02T02:23:29.608Z,36.90
2019-02-02T02:26:00.496Z,40.60
2019-02-02T02:28:29.717Z,46.45
2019-02-02T02:30:59.169Z,40.80
2019-02-02T02:33:54.617Z,43.85
2019-02-02T02:36:23.827Z,43.17
2019-02-02T02:38:56.416Z,39.80
2019-02-02T02:41:40.071Z,41.20
2019-02-02T02:44:09.678Z,46.03
2019-02-02T02:46:45.004Z,40.30
2019-02-02T02:49:15.520Z,44.57
2019-02-02T02:51:45.866Z,48.07
2019-02-02T02:54:15.068Z,47.70
2019-02-02T02:56:44.268Z,43.70
2019-02-02T02:59:17.516Z,49.83
2019-02-02T03:01:46.958Z,44.80
2019-02-02T03:04:17.084Z,47.67
2019-02-02T03:06:46.504Z,55.48
2019-02-02T03:09:27.485Z,54.93
2019-02-02T03:11:58.075Z,45.58
2019-02-02T03:14:29.885Z,50.60
2019-02-02T03:16:59.746Z,49.90
2019-02-02T03:19:28.987Z,48.90
2019-02-02T03:22:51.680Z,47.90
2019-02-02T03:25:22.662Z,48.63
2019-02-02T03:28:28.923Z,43.37
2019-02-02T03:30:58.080Z,46.33
2019-02-02T03:33:53.626Z,46.23
2019-02-02T03:36:22.815Z,49.77
2019-02-02T03:38:55.025Z,39.27
2019-02-02T03:41:47.618Z,44.23
2019-02-02T03:44:35.519Z,38.53
2019-02-02T03:47:38.486Z,40.50
2019-02-02T03:50:45.005Z,43.40
2019-02-02T03:53:50.155Z,44.57
2019-02-02T03:56:19.710Z,54.20
2019-02-02T03:58:49.661Z,48.10
2019-02-02T04:02:17.372Z,51.60
2019-02-02T04:04:46.977Z,56.83
2019-02-02T04:07:37.244Z,53.53
2019-02-02T04:10:07.875Z,55.58
2019-02-02T04:12:45.341Z,53.02
2019-02-02T04:15:15.626Z,56.40
2019-02-02T04:17:44.918Z,53.93
2019-02-02T04:20:16.786Z,59.80
2019-02-02T04:22:46.823Z,66.57
2019-02-02T04:25:16.766Z,59.43
2019-02-02T04:27:46.384Z,72.13
2019-02-02T04:30:18.513Z,58.67
2019-02-02T04:36:40.227Z,54.67
2019-02-02T04:42:24.536Z,54.57
2019-02-02T04:45:03.791Z,57.07
2019-02-02T04:48:44.732Z,58.63
2019-02-02T04:50:52.403Z,46.25
2019-02-02T04:53:21.618Z,43.53
2019-02-02T04:55:51.270Z,50.63
2019-02-02T04:58:32.494Z,39.27
2019-02-02T05:08:23.323Z,47.45
2019-02-02T05:10:53.702Z,52.83
2019-02-02T05:13:22.884Z,51.98
2019-02-02T05:15:56.653Z,54.48
2019-02-02T05:22:20.790Z,48.63
2019-02-02T05:24:50.271Z,53.00
2019-02-02T05:27:54.491Z,51.73
2019-02-02T05:30:38.816Z,54.70
2019-02-02T05:33:27.069Z,48.63
2019-02-02T05:35:56.330Z,51.13
2019-02-02T05:38:25.524Z,55.60
2019-02-02T05:40:57.192Z,52.37
2019-02-02T05:43:41.402Z,48.17
2019-02-02T05:53:32.684Z,46.28
2019-02-02T05:56:07.219Z,56.70
2019-02-02T05:58:36.797Z,52.67
2019-02-02T06:02:15.154Z,51.70
2019-02-02T06:05:02.167Z,51.60
2019-02-02T06:08:12.154Z,55.83
2019-02-02T06:10:59.511Z,44.80
2019-02-02T06:13:32.597Z,48.30
2019-02-02T06:16:02.156Z,57.17
2019-02-02T06:18:33.068Z,50.45
2019-02-02T06:21:28.192Z,53.48
2019-02-02T06:24:25.891Z,44.77
2019-02-02T06:26:56.117Z,50.90
2019-02-02T06:29:25.279Z,60.63
2019-02-02T06:32:10.965Z,52.33
2019-02-02T06:34:30.243Z,52.47
2019-02-02T06:36:59.502Z,54.77
2019-02-02T06:39:32.222Z,49.30
2019-02-02T06:45:41.650Z,47.53
2019-02-02T06:52:15.227Z,55.73
2019-02-02T06:54:49.905Z,50.00
2019-02-02T07:01:47.595Z,49.15
2019-02-02T07:04:16.845Z,44.93
2019-02-02T07:06:47.301Z,44.70
2019-02-02T07:09:16.716Z,43.47
2019-02-02T07:12:29.036Z,48.23
2019-02-02T07:16:14.475Z,39.15
2019-02-02T07:18:11.867Z,46.03
2019-02-02T07:20:42.880Z,46.60
2019-02-02T07:23:16.303Z,41.40
2019-02-02T07:25:52.228Z,44.40
2019-02-02T07:28:57.299Z,41.47
2019-02-02T07:31:27.854Z,47.30
2019-02-02T07:34:18.016Z,42.97
2019-02-02T07:36:54.266Z,42.62
2019-02-02T07:39:25.647Z,49.30
2019-02-02T07:42:01.400Z,47.03
2019-02-02T07:44:58.859Z,46.23
2019-02-02T08:24:08.335Z,53.40
2019-02-02T08:34:38.092Z,51.97
2019-02-02T08:37:37.949Z,53.30
2019-02-02T08:40:14.799Z,65.08
2019-02-02T08:42:44.856Z,57.80
2019-02-02T08:45:15.012Z,60.33
2019-02-02T08:47:44.443Z,63.05
2019-02-02T08:50:16.386Z,47.13
2019-02-02T08:52:46.118Z,47.23
2019-02-02T08:55:15.359Z,49.17
2019-02-02T08:57:46.606Z,46.93
2019-02-02T09:00:17.468Z,46.40
2019-02-02T09:02:48.609Z,48.00
2019-02-02T09:05:22.171Z,46.80
2019-02-02T09:07:52.287Z,55.20
2019-02-02T09:10:27.678Z,53.40
2019-02-02T09:12:57.558Z,60.93
2019-02-02T09:15:30.574Z,51.00
2019-02-02T09:17:59.939Z,56.03
2019-02-02T09:20:29.392Z,50.83
2019-02-02T09:23:05.790Z,50.87
2019-02-02T09:25:29.743Z,56.63
2019-02-02T09:27:59.253Z,49.77
2019-02-02T09:30:34.356Z,60.50
2019-02-02T09:33:03.673Z,64.67
2019-02-02T09:35:32.972Z,61.47
2019-02-02T09:38:02.127Z,64.00
2019-02-02T09:40:32.499Z,57.47
2019-02-02T09:43:02.055Z,53.00
2019-02-02T09:45:31.445Z,51.00
2019-02-02T09:48:44.156Z,46.53
2019-02-02T09:51:13.721Z,48.00
2019-02-02T09:53:43.803Z,53.05
2019-02-02T09:56:13.310Z,54.70
2019-02-02T09:58:43.387Z,54.30
2019-02-02T10:01:13.010Z,57.67
2019-02-02T10:03:42.305Z,66.53
2019-02-02T10:06:21.433Z,52.30
2019-02-02T10:08:50.913Z,49.00
2019-02-02T10:11:20.089Z,52.60
2019-02-02T10:13:57.411Z,60.00
2019-02-02T10:16:33.420Z,58.83
2019-02-02T10:19:02.688Z,65.95
2019-02-02T10:21:32.030Z,58.43
2019-02-02T10:24:01.405Z,63.28
2019-02-02T10:26:36.312Z,74.33
2019-02-02T10:29:30.461Z,72.97
2019-02-02T10:32:07.088Z,82.33
2019-02-02T10:34:38.455Z,71.80
2019-02-02T10:37:23.797Z,61.80
2019-02-02T10:39:53.166Z,71.63
2019-02-02T10:42:29.706Z,75.10
2019-02-02T10:45:04.519Z,84.50
2019-02-02T10:47:39.100Z,74.17
2019-02-02T10:50:10.426Z,91.82
2019-02-02T10:52:39.720Z,68.20
2019-02-02T10:55:10.841Z,60.28
2019-02-02T10:57:43.312Z,77.00
2019-02-02T11:00:18.702Z,53.67
2019-02-02T11:02:48.128Z,60.33
2019-02-02T11:05:17.544Z,63.27
2019-02-02T11:07:48.252Z,54.63
2019-02-02T11:10:21.377Z,70.73
2019-02-02T11:12:51.713Z,58.05
2019-02-02T11:15:21.737Z,63.70
2019-02-02T11:17:52.759Z,59.27
2019-02-02T11:20:25.788Z,65.53
2019-02-02T11:22:55.199Z,61.95
2019-02-02T11:25:24.599Z,60.90
2019-02-02T11:27:53.982Z,62.20
2019-02-02T11:30:23.995Z,65.95
2019-02-02T11:32:53.390Z,63.73
2019-02-02T11:35:22.856Z,70.73
2019-02-02T11:37:52.458Z,59.90
2019-02-02T11:40:26.585Z,71.93
2019-02-02T11:42:56.173Z,68.83
2019-02-02T11:45:25.407Z,78.37
2019-02-02T11:47:54.905Z,74.37
2019-02-02T11:50:24.929Z,82.73
2019-02-02T11:52:54.165Z,68.80
2019-02-02T11:55:23.472Z,68.57
2019-02-02T11:57:53.090Z,66.77
2019-02-02T12:00:30.638Z,68.13
2019-02-02T12:03:00.356Z,87.20
2019-02-02T12:05:30.052Z,77.97
2019-02-02T12:07:59.221Z,74.67
2019-02-02T12:10:30.024Z,70.60
2019-02-02T12:12:59.646Z,74.90
2019-02-02T12:15:30.499Z,67.90
2019-02-02T12:17:59.939Z,68.00
2019-02-02T12:20:33.096Z,62.20
2019-02-02T12:23:02.208Z,73.92
2019-02-02T12:25:31.506Z,75.57
2019-02-02T12:28:00.696Z,65.67
2019-02-02T12:30:31.896Z,69.00
2019-02-02T12:33:03.389Z,78.53
2019-02-02T12:35:32.545Z,68.43
2019-02-02T12:38:01.899Z,79.33
2019-02-02T12:40:31.257Z,77.80
2019-02-02T12:43:00.773Z,78.00
2019-02-02T12:45:50.567Z,85.80
2019-02-02T12:48:20.070Z,68.80
2019-02-02T12:50:49.750Z,76.55
2019-02-02T12:53:19.087Z,74.03
2019-02-02T12:55:48.465Z,79.55
2019-02-02T12:58:17.731Z,70.83
2019-02-02T13:00:47.071Z,80.17
2019-02-02T13:03:16.304Z,79.67
2019-02-02T13:05:45.551Z,87.63
2019-02-02T13:08:14.776Z,80.27
2019-02-02T13:10:44.050Z,96.57
2019-02-02T13:13:13.287Z,78.47
2019-02-02T13:15:42.515Z,82.40
2019-02-02T13:18:11.830Z,78.27
2019-02-02T13:20:41.159Z,83.17
2019-02-02T13:23:10.501Z,92.90
2019-02-02T13:25:40.114Z,79.40
2019-02-02T13:28:10.880Z,85.90
2019-02-02T13:30:40.594Z,81.10
2019-02-02T13:33:09.885Z,104.70
2019-02-02T13:35:41.747Z,86.70
2019-02-02T13:38:11.063Z,78.33
2019-02-02T13:40:45.720Z,77.00
2019-02-02T13:43:18.977Z,68.95
2019-02-02T13:45:48.760Z,70.50
2019-02-02T13:48:18.566Z,74.97
2019-02-02T13:50:47.858Z,77.63
2019-02-02T13:53:17.333Z,74.67
2019-02-02T13:55:46.619Z,77.10
2019-02-02T13:58:16.863Z,81.47
2019-02-02T14:00:54.958Z,74.03
2019-02-02T14:03:24.284Z,77.50
2019-02-02T14:05:53.980Z,67.23
2019-02-02T14:08:23.703Z,68.40
2019-02-02T14:10:53.674Z,76.47
2019-02-02T14:13:22.941Z,67.20
2019-02-02T14:15:53.263Z,68.90
2019-02-02T14:18:22.524Z,68.87
2019-02-02T14:20:52.125Z,78.57
2019-02-02T14:23:21.399Z,75.13
2019-02-02T14:25:50.904Z,66.57
2019-02-02T14:28:27.995Z,61.67
2019-02-02T14:30:53.587Z,61.73
2019-02-02T14:33:22.868Z,67.70
2019-02-02T14:35:52.143Z,68.47
2019-02-02T14:38:21.489Z,66.35
2019-02-02T14:40:51.072Z,75.20
2019-02-02T14:43:21.276Z,63.83
2019-02-02T14:45:50.623Z,65.87
2019-02-02T14:48:19.869Z,68.50
2019-02-02T14:50:49.097Z,59.73
2019-02-02T14:53:18.385Z,63.05
2019-02-02T14:55:47.724Z,61.97
2019-02-02T14:58:17.400Z,63.40
2019-02-02T15:00:46.639Z,67.97
2019-02-02T15:03:25.461Z,64.43
2019-02-02T15:05:47.301Z,66.30
2019-02-02T15:08:16.577Z,67.77
2019-02-02T15:10:45.854Z,66.37
2019-02-02T15:13:15.158Z,65.05
2019-02-02T15:15:44.761Z,65.10
2019-02-02T15:18:14.015Z,71.10
2019-02-02T15:20:43.661Z,68.53
2019-02-02T15:23:12.936Z,61.93
2019-02-02T15:25:42.263Z,77.77
2019-02-02T15:28:11.559Z,73.20
2019-02-02T15:30:40.765Z,63.03
2019-02-02T15:33:10.093Z,70.10
2019-02-02T15:35:39.356Z,62.23
2019-02-02T15:38:08.712Z,57.23
2019-02-02T15:40:38.147Z,56.10
2019-02-02T15:43:07.400Z,66.47
2019-02-02T15:45:36.685Z,57.67
2019-02-02T15:48:06.174Z,61.67
2019-02-02T15:50:35.461Z,67.20
2019-02-02T15:53:05.049Z,57.90
2019-02-02T15:55:34.684Z,57.05
2019-02-02T15:58:04.464Z,63.83
2019-02-02T16:00:36.053Z,70.83
2019-02-02T16:03:05.973Z,62.78
2019-02-02T16:05:35.941Z,56.87
2019-02-02T16:08:08.663Z,63.97
2019-02-02T16:10:38.753Z,65.17
2019-02-02T16:13:08.185Z,68.53
2019-02-02T16:15:37.480Z,79.37
2019-02-02T16:18:06.898Z,62.67
2019-02-02T16:20:38.224Z,68.95
2019-02-02T16:23:07.446Z,72.08
2019-02-02T16:25:37.103Z,78.00
2019-02-02T16:28:06.555Z,68.92
2019-02-02T16:30:36.179Z,81.80
2019-02-02T16:33:07.011Z,77.43
2019-02-02T16:35:36.567Z,75.92
2019-02-02T16:38:06.099Z,67.67
2019-02-02T16:40:35.354Z,76.17
2019-02-02T16:43:05.170Z,69.87
2019-02-02T16:45:34.366Z,72.33
2019-02-02T16:48:03.957Z,68.10
2019-02-02T16:50:33.519Z,69.27
2019-02-02T16:53:03.327Z,77.30
2019-02-02T16:55:32.902Z,74.90
2019-02-02T16:58:02.122Z,69.00
2019-02-02T17:00:33.254Z,71.30
2019-02-02T17:03:02.554Z,70.57
2019-02-02T17:05:31.797Z,69.50
2019-02-02T17:08:01.022Z,68.30
2019-02-02T17:10:32.326Z,66.17
2019-02-02T17:13:01.848Z,69.20
2019-02-02T17:15:31.288Z,63.63
2019-02-02T17:18:00.537Z,67.90
2019-02-02T17:20:35.361Z,63.00
2019-02-02T17:23:05.133Z,64.27
2019-02-02T17:25:34.643Z,65.87
2019-02-02T17:28:04.384Z,66.43
2019-02-02T17:30:34.808Z,61.97
2019-02-02T17:33:06.394Z,78.87
2019-02-02T17:35:35.528Z,76.33
2019-02-02T17:38:04.936Z,72.57
2019-02-02T17:40:34.110Z,68.33
2019-02-02T17:43:03.595Z,74.60
2019-02-02T17:45:33.427Z,77.90
2019-02-02T17:48:02.594Z,66.30
2019-02-02T17:50:31.846Z,64.00
2019-02-02T17:53:01.080Z,67.72
2019-02-02T17:55:30.611Z,79.70
2019-02-02T17:57:59.905Z,75.17
2019-02-02T18:00:42.655Z,62.93
2019-02-02T18:03:12.165Z,63.33
2019-02-02T18:05:41.387Z,68.10
2019-02-02T18:08:10.596Z,82.37
2019-02-02T18:10:39.845Z,79.30
2019-02-02T18:13:09.339Z,77.60
2019-02-02T18:15:39.658Z,74.42
2019-02-02T18:18:09.108Z,92.73
2019-02-02T18:20:38.661Z,64.97
2019-02-02T18:23:07.917Z,84.17
2019-02-02T18:25:37.216Z,82.57
2019-02-02T18:28:06.578Z,84.20
2019-02-02T18:30:37.066Z,86.03
2019-02-02T18:33:06.369Z,87.05
2019-02-02T18:35:35.843Z,70.07
2019-02-02T18:38:05.124Z,77.07
2019-02-02T18:40:34.769Z,73.87
2019-02-02T18:43:05.329Z,71.87
2019-02-02T18:45:34.558Z,77.10
2019-02-02T18:48:04.368Z,76.13
2019-02-02T18:50:33.603Z,70.80
2019-02-02T18:53:03.961Z,78.20
2019-02-02T18:55:48.984Z,84.57
2019-02-02T18:58:18.174Z,77.15
2019-02-02T19:00:48.557Z,89.80
2019-02-02T19:03:17.791Z,89.53
2019-02-02T19:05:47.748Z,77.60
2019-02-02T19:08:18.777Z,70.80
2019-02-02T19:10:48.012Z,71.87
2019-02-02T19:13:18.314Z,71.15
2019-02-02T19:15:47.838Z,79.27
2019-02-02T19:18:17.139Z,75.80
2019-02-02T19:20:48.003Z,76.37
2019-02-02T19:23:24.725Z,87.37
2019-02-02T19:25:48.555Z,83.43
2019-02-02T19:28:18.479Z,100.37
2019-02-02T19:30:47.782Z,89.30
2019-02-02T19:33:17.042Z,88.13
2019-02-02T19:35:46.472Z,105.70
2019-02-02T19:38:16.124Z,101.47
2019-02-02T19:40:45.388Z,109.40
2019-02-02T19:43:15.994Z,99.83
2019-02-02T19:45:45.692Z,100.10
2019-02-02T19:48:15.326Z,96.80
2019-02-02T19:50:50.391Z,114.60
2019-02-02T19:53:19.804Z,97.97
2019-02-02T19:55:48.992Z,93.83
2019-02-02T19:58:18.483Z,87.00
2019-02-02T20:00:47.905Z,89.03
2019-02-02T20:03:17.260Z,101.25
2019-02-02T20:05:46.928Z,95.53
2019-02-02T20:08:16.533Z,95.10
2019-02-02T20:10:45.817Z,99.30
2019-02-02T20:13:15.190Z,109.05
2019-02-02T20:15:45.003Z,101.50
2019-02-02T20:18:14.893Z,114.20
2019-02-02T20:20:44.173Z,103.22
2019-02-02T20:23:13.737Z,102.77
2019-02-02T20:25:43.145Z,109.90
2019-02-02T20:28:12.529Z,95.07
2019-02-02T20:30:41.793Z,95.70
2019-02-02T20:33:11.364Z,90.80
2019-02-02T20:38:24.138Z,89.42
2019-02-02T20:40:54.337Z,89.67
2019-02-02T20:43:23.704Z,68.83
2019-02-02T20:45:53.579Z,79.37
2019-02-02T20:48:22.903Z,70.73
2019-02-02T20:50:52.218Z,71.83
2019-02-02T20:53:21.785Z,66.10
2019-02-02T20:55:51.513Z,71.92
2019-02-02T20:58:20.862Z,79.03
2019-02-02T21:00:50.031Z,71.77
2019-02-02T21:03:19.414Z,73.20
2019-02-02T21:05:52.561Z,82.40
2019-02-02T21:08:20.364Z,77.78
2019-02-02T21:10:49.641Z,81.10
2019-02-02T21:13:18.931Z,79.43
2019-02-02T21:15:48.140Z,76.90
2019-02-02T21:18:17.798Z,80.10
2019-02-02T21:20:47.137Z,78.83
2019-02-02T21:23:16.479Z,87.33
2019-02-02T21:25:45.690Z,76.85
2019-02-02T21:28:16.290Z,76.53
2019-02-02T21:30:46.209Z,75.60
2019-02-02T21:33:16.713Z,82.57
2019-02-02T21:35:48.806Z,92.13
2019-02-02T21:38:20.615Z,82.02
2019-02-02T21:40:50.227Z,84.93
2019-02-02T21:43:20.026Z,86.93
2019-02-02T21:45:49.353Z,85.33
2019-02-02T21:48:18.718Z,85.90
2019-02-02T21:50:48.056Z,99.50
2019-02-02T21:53:17.892Z,82.53
2019-02-02T21:55:50.208Z,91.07
2019-02-02T21:58:21.087Z,94.32
2019-02-02T22:00:50.443Z,89.58
2019-02-02T22:03:22.240Z,85.63
2019-02-02T22:05:51.742Z,93.33
2019-02-02T22:08:21.491Z,91.20
2019-02-02T22:10:50.760Z,94.83
2019-02-02T22:13:20.043Z,96.20
2019-02-02T22:15:57.317Z,87.57
2019-02-02T22:18:30.677Z,94.77
2019-02-02T22:21:00.184Z,83.17
2019-02-02T22:23:29.409Z,84.37
2019-02-02T22:25:59.083Z,79.93
2019-02-02T22:28:28.368Z,93.00
2019-02-02T22:30:57.783Z,87.93
2019-02-02T22:33:28.014Z,92.55
2019-02-02T22:35:57.976Z,95.40
2019-02-02T22:38:27.650Z,103.70
2019-02-02T22:40:56.911Z,106.53
2019-02-02T22:43:26.313Z,103.12
2019-02-02T22:45:56.029Z,97.95
2019-02-02T22:48:27.028Z,94.40
2019-02-02T22:50:56.656Z,100.25
2019-02-02T22:53:26.005Z,103.20
2019-02-02T22:55:55.985Z,92.90
2019-02-02T22:58:25.775Z,105.93
2019-02-02T23:01:16.117Z,97.90
2019-02-02T23:04:11.906Z,99.83
2019-02-02T23:07:40.245Z,90.55
2019-02-02T23:10:59.758Z,95.93
2019-02-02T23:14:16.766Z,86.10
2019-02-02T23:16:46.371Z,85.70
2019-02-02T23:19:15.851Z,86.67
2019-02-02T23:21:45.185Z,89.70
2019-02-02T23:24:14.546Z,73.78
2019-02-02T23:26:43.864Z,62.07
2019-02-02T23:29:13.140Z,59.88
2019-02-02T23:31:42.979Z,68.30
2019-02-02T23:34:12.210Z,58.98
2019-02-02T23:36:50.978Z,59.93
2019-02-02T23:39:12.688Z,52.60
2019-02-02T23:41:42.342Z,54.97
2019-02-02T23:44:11.644Z,50.13
2019-02-02T23:46:40.947Z,54.10
2019-02-02T23:49:11.207Z,52.05
2019-02-02T23:51:40.692Z,51.60
2019-02-02T23:54:10.361Z,47.27
2019-02-02T23:56:39.645Z,47.27
2019-02-02T23:59:09.098Z,47.93
